Time;durP1;ratioP1;P1;durP2;ratioP2;P2;SDS_P1;SDS_P2;PMS_P1;PMS_P2;Temp;Humidity;BMP_temperature;BMP_pressure;BME280_temperature;BME280_humidity;BME280_pressure;Samples;Min_cycle;Max_cycle;Signal;HPM_P1;HPM_P2
2022/06/15 00:01:44;;;;;;;;;2.50;2.00;;;;;-146.67;27.10;73621.56;5081919;27;61855;-87
2022/06/15 00:04:09;;;;;;;;;3.25;1.00;;;;;-146.67;27.00;73609.59;5082464;27;61963;-88
2022/06/15 00:06:40;;;;;;;;;1.75;1.75;;;;;-146.67;26.88;73605.59;5082217;27;61828;-87
2022/06/15 00:09:07;;;;;;;;;3.00;2.00;;;;;-146.67;27.14;73619.56;5081919;27;62027;-88
2022/06/15 00:11:38;;;;;;;;;2.00;2.00;;;;;-146.67;27.20;73625.56;5081550;27;61894;-88
2022/06/15 00:14:11;;;;;;;;;3.25;1.00;;;;;-146.67;27.10;73643.53;5080394;28;62040;-87
2022/06/15 00:16:37;;;;;;;;;2.75;2.75;;;;;-146.67;27.36;73643.53;5081052;28;62021;-87
2022/06/15 00:19:04;;;;;;;;;1.67;1.67;;;;;-146.67;27.58;73643.53;5080457;28;62221;-88
2022/06/15 00:21:30;;;;;;;;;2.25;2.00;;;;;-146.67;27.56;73647.50;5081766;27;62186;-87
2022/06/15 00:23:57;;;;;;;;;1.67;1.67;;;;;-146.67;27.29;73647.50;5082630;27;62022;-87
2022/06/15 00:26:23;;;;;;;;;3.00;3.00;;;;;-146.67;27.48;73617.56;5086016;27;62673;-85
2022/06/15 00:28:50;;;;;;;;;7.75;3.00;;;;;-146.67;27.79;73649.50;5085185;27;61920;-87
2022/06/15 00:31:16;;;;;;;;;2.00;2.00;;;;;-146.67;27.63;73653.50;5084716;27;61705;-87
2022/06/15 00:33:42;;;;;;;;;3.00;3.00;;;;;-146.67;27.53;73661.50;5085549;27;61930;-87
2022/06/15 00:36:10;;;;;;;;;4.00;2.00;;;;;-146.67;27.80;73661.50;5085506;27;62008;-88
2022/06/15 00:38:40;;;;;;;;;2.50;2.50;;;;;-146.67;27.79;73671.47;5085541;28;62047;-87
2022/06/15 00:41:07;;;;;;;;;2.00;2.00;;;;;-146.67;27.81;73677.47;5084837;27;63662;-88
2022/06/15 00:43:37;;;;;;;;;3.00;2.00;;;;;-146.67;27.96;73689.44;5085006;28;62038;-87
2022/06/15 00:46:31;;;;;;;;;2.00;2.00;;;;;-146.67;27.87;73687.44;5084072;28;61875;-88
2022/06/15 00:48:59;;;;;;;;;4.00;2.33;;;;;-146.67;27.94;73689.44;5083935;28;61908;-87
2022/06/15 00:51:26;;;;;;;;;4.75;2.25;;;;;-146.67;28.21;73687.44;5083087;28;63467;-86
2022/06/15 00:53:55;;;;;;;;;3.50;3.50;;;;;-146.67;28.05;73691.44;5084664;27;61825;-87
2022/06/15 00:56:21;;;;;;;;;2.00;2.00;;;;;-146.67;28.07;73705.41;5085174;27;61900;-87
2022/06/15 00:58:51;;;;;;;;;2.50;2.00;;;;;-146.67;27.97;73707.41;5085083;28;62263;-87
2022/06/15 01:01:17;;;;;;;;;1.25;1.00;;;;;-146.67;27.96;73707.41;5084270;27;62429;-87
2022/06/15 01:03:46;;;;;;;;;1.33;0.67;;;;;-146.67;28.23;73707.41;5084886;27;62145;-87
2022/06/15 01:06:19;;;;;;;;;2.00;2.00;;;;;-146.67;28.20;73723.38;5083671;28;61775;-87
2022/06/15 01:09:03;;;;;;;;;3.00;2.00;;;;;-146.67;28.30;73735.34;5085200;27;61783;-87
2022/06/15 01:11:47;;;;;;;;;1.50;1.50;;;;;-146.67;28.27;73735.34;5083097;28;64136;-87
2022/06/15 01:14:24;;;;;;;;;3.75;2.00;;;;;-146.67;28.36;73729.34;5083273;28;61866;-87
2022/06/15 01:17:05;;;;;;;;;4.00;1.00;;;;;-146.67;28.41;73741.34;5085087;28;61875;-87
2022/06/15 01:19:55;;;;;;;;;2.75;1.25;;;;;-146.67;28.32;73751.31;5083357;28;61956;-87
2022/06/15 01:22:32;;;;;;;;;2.25;2.25;;;;;-146.67;28.68;73767.28;5083938;28;62055;-87
2022/06/15 01:25:10;;;;;;;;;2.00;2.00;;;;;-146.67;28.72;73777.25;5083405;28;61909;-87
2022/06/15 01:27:39;;;;;;;;;3.25;3.00;;;;;-146.67;28.92;73779.25;5084512;27;61777;-87
2022/06/15 01:30:07;;;;;;;;;1.50;1.50;;;;;-146.67;28.87;73793.22;5084463;27;61897;-87
2022/06/15 01:32:45;;;;;;;;;2.50;1.50;;;;;-146.67;28.92;73793.22;5082700;28;63738;-87
2022/06/15 01:35:32;;;;;;;;;3.25;2.50;;;;;-146.67;29.04;73793.22;5083829;27;61878;-87
2022/06/15 01:38:21;;;;;;;;;3.50;2.75;;;;;-146.67;28.84;73795.22;5084297;27;61939;-86
2022/06/15 01:41:03;;;;;;;;;1.00;1.00;;;;;-146.67;29.07;73801.22;5084523;27;61889;-86
2022/06/15 01:43:35;;;;;;;;;3.00;2.00;;;;;-146.67;29.21;73805.22;5083376;27;61796;-87
2022/06/15 01:46:02;;;;;;;;;2.00;2.00;;;;;-146.67;29.11;73805.22;5084334;27;61996;-87
2022/06/15 01:48:30;;;;;;;;;1.50;1.00;;;;;-146.67;28.77;73751.31;5082158;28;61809;-86
2022/06/15 01:51:03;;;;;;;;;2.00;2.00;;;;;-146.67;29.21;73801.22;5084824;27;61770;-87
2022/06/15 01:53:34;;;;;;;;;1.50;1.50;;;;;-146.67;29.26;73801.22;5080818;28;62238;-87
2022/06/15 01:56:12;;;;;;;;;2.25;2.25;;;;;-146.67;29.41;73811.19;5084205;27;61920;-87
2022/06/15 01:58:41;;;;;;;;;2.00;2.00;;;;;-146.67;29.40;73817.19;5082369;28;62267;-86
2022/06/15 02:01:07;;;;;;;;;2.00;2.00;;;;;-146.67;29.38;73825.16;5084435;27;61897;-86
2022/06/15 02:03:42;;;;;;;;;3.00;3.00;;;;;-146.67;29.40;73819.19;5082184;28;63911;-87
2022/06/15 02:06:33;;;;;;;;;2.00;2.00;;;;;-146.67;29.36;73823.16;5084482;27;61884;-87
2022/06/15 02:09:14;;;;;;;;;3.00;3.00;;;;;-146.67;29.59;73825.16;5083927;28;61960;-87
2022/06/15 02:11:42;;;;;;;;;1.75;1.50;;;;;-146.67;29.63;73823.16;5084438;27;61927;-87
2022/06/15 02:14:22;;;;;;;;;3.00;2.00;;;;;-146.67;29.24;73825.16;5083104;27;61746;-87
2022/06/15 02:16:56;;;;;;;;;3.00;2.00;;;;;-146.67;29.28;73829.16;5082535;28;61802;-87
2022/06/15 02:19:32;;;;;;;;;3.00;2.00;;;;;-146.67;29.73;73829.16;5083665;27;62222;-87
2022/06/15 02:22:04;;;;;;;;;2.00;2.00;;;;;-146.67;29.80;73837.16;5082722;28;62153;-86
2022/06/15 02:24:32;;;;;;;;;4.00;2.00;;;;;-146.67;29.81;73835.16;5083037;27;62249;-87
2022/06/15 02:26:58;;;;;;;;;3.00;3.00;;;;;-146.67;29.52;73847.13;5082373;28;62102;-86
2022/06/15 02:29:25;;;;;;;;;4.00;4.00;;;;;-146.67;29.70;73849.13;5082006;28;62558;-87
2022/06/15 02:31:56;;;;;;;;;4.25;3.50;;;;;-146.67;29.85;73857.09;5082199;28;62099;-86
2022/06/15 02:34:22;;;;;;;;;2.00;2.00;;;;;-146.67;29.82;73859.09;5081297;28;63603;-86
2022/06/15 02:36:47;;;;;;;;;2.50;2.50;;;;;-146.67;29.92;73861.09;5083639;27;61864;-86
2022/06/15 02:39:13;;;;;;;;;1.00;1.00;;;;;-146.67;29.78;73873.06;5082968;28;62192;-86
2022/06/15 02:41:38;;;;;;;;;5.00;2.00;;;;;-146.67;30.04;73869.09;5083603;27;61916;-87
2022/06/15 02:44:06;;;;;;;;;4.25;3.00;;;;;-146.67;30.17;73873.06;5082451;27;62791;-87
2022/06/15 02:46:37;;;;;;;;;4.75;2.00;;;;;-146.67;30.10;73865.09;5082860;27;62186;-86
2022/06/15 02:49:03;;;;;;;;;2.00;1.75;;;;;-146.67;29.86;73857.09;5081995;28;61981;-86
2022/06/15 02:51:51;;;;;;;;;3.00;3.00;;;;;-146.67;29.76;73873.06;5083551;28;61733;-86
2022/06/15 02:54:32;;;;;;;;;3.00;3.00;;;;;-146.67;29.92;73873.06;5082982;27;61926;-86
2022/06/15 02:56:58;;;;;;;;;3.00;3.00;;;;;-146.67;29.96;73875.06;5083283;27;62160;-86
2022/06/15 02:59:24;;;;;;;;;3.00;3.00;;;;;-146.67;30.37;73881.06;5082438;28;61976;-87
2022/06/15 03:01:50;;;;;;;;;2.75;2.75;;;;;-146.67;29.96;73881.06;5082054;28;61794;-86
2022/06/15 03:04:15;;;;;;;;;2.25;2.25;;;;;-146.67;30.42;73883.06;5082729;27;61862;-86
2022/06/15 03:06:41;;;;;;;;;2.25;1.75;;;;;-146.67;30.46;73881.06;5082920;28;62066;-85
2022/06/15 03:09:06;;;;;;;;;3.75;3.00;;;;;-146.67;30.09;73871.06;5090064;27;61967;-86
2022/06/15 03:11:32;;;;;;;;;2.50;2.50;;;;;-146.67;30.29;73867.09;5084510;28;61896;-86
2022/06/15 03:13:58;;;;;;;;;5.00;3.00;;;;;-146.67;30.05;73869.09;5079608;28;63114;-86
2022/06/15 03:16:24;;;;;;;;;2.75;2.75;;;;;-146.67;29.97;73871.06;5081485;28;61896;-86
2022/06/15 03:18:50;;;;;;;;;3.50;2.25;;;;;-146.67;30.26;73885.06;5080815;28;61813;-87
2022/06/15 03:21:16;;;;;;;;;3.25;3.25;;;;;-146.67;30.08;73887.03;5081677;28;61919;-87
2022/06/15 03:23:42;;;;;;;;;2.50;2.50;;;;;-146.67;30.25;73891.03;5080690;28;63908;-87
2022/06/15 03:26:08;;;;;;;;;3.00;3.00;;;;;-146.67;30.32;73891.03;5081545;28;61858;-87
2022/06/15 03:28:34;;;;;;;;;3.75;3.75;;;;;-146.67;30.38;73887.03;5080164;28;62027;-86
2022/06/15 03:31:00;;;;;;;;;6.00;6.00;;;;;-146.67;30.52;73889.03;5081275;28;61790;-87
2022/06/15 03:33:26;;;;;;;;;6.25;3.75;;;;;-146.67;30.16;73899.03;5080609;28;63937;-86
2022/06/15 03:35:51;;;;;;;;;6.00;5.00;;;;;-146.67;30.47;73895.03;5080929;28;61721;-86
2022/06/15 03:38:17;;;;;;;;;3.75;3.75;;;;;-146.67;30.24;73901.03;5080193;28;61963;-86
2022/06/15 03:40:48;;;;;;;;;4.25;3.00;;;;;-146.67;30.49;73891.03;5081455;28;61853;-86
2022/06/15 03:43:15;;;;;;;;;2.75;2.75;;;;;-146.67;30.20;73891.03;5079556;28;62311;-87
2022/06/15 03:45:42;;;;;;;;;2.25;2.25;;;;;-146.67;30.24;73891.03;5079858;28;61483;-86
2022/06/15 03:48:09;;;;;;;;;2.75;2.50;;;;;-146.67;30.20;73893.03;5081210;28;62625;-86
2022/06/15 03:50:35;;;;;;;;;5.75;4.00;;;;;-146.67;30.60;73895.03;5082835;27;62033;-86
2022/06/15 03:53:02;;;;;;;;;4.25;3.00;;;;;-146.67;30.66;73893.03;5080233;28;62074;-87
2022/06/15 03:55:31;;;;;;;;;4.00;4.00;;;;;-146.67;30.21;73889.03;5080508;28;62113;-87
2022/06/15 03:57:57;;;;;;;;;3.00;3.00;;;;;-146.67;30.57;73889.03;5079965;28;62003;-87
2022/06/15 04:00:28;;;;;;;;;2.00;2.00;;;;;-146.67;30.21;73903.00;5079681;28;62063;-87
2022/06/15 04:02:54;;;;;;;;;4.75;2.00;;;;;-146.67;30.57;73889.03;5081625;27;61880;-86
2022/06/15 04:05:24;;;;;;;;;3.00;3.00;;;;;-146.67;30.63;73897.03;5081002;28;61705;-87
2022/06/15 04:10:35;;;;;;;;;2.25;2.25;;;;;-146.67;30.42;73917.00;5082533;28;61901;-87
2022/06/15 04:13:01;;;;;;;;;2.75;2.75;;;;;-146.67;30.73;73920.97;5079700;28;62152;-86
2022/06/15 04:15:27;;;;;;;;;4.00;3.00;;;;;-146.67;30.83;73913.00;5079962;28;61963;-87
2022/06/15 04:17:53;;;;;;;;;3.25;3.25;;;;;-146.67;30.74;73909.00;5080313;28;62507;-87
2022/06/15 04:20:33;;;;;;;;;1.75;1.75;;;;;-146.67;30.46;73915.00;5082262;27;61774;-86
2022/06/15 04:23:03;;;;;;;;;3.00;3.00;;;;;-146.67;30.36;73913.00;5080050;28;63818;-87
2022/06/15 04:25:30;;;;;;;;;3.00;3.00;;;;;-146.67;30.82;73922.97;5080144;28;62048;-87
2022/06/15 04:27:56;;;;;;;;;4.00;4.00;;;;;-146.67;30.58;73926.97;5079464;28;62046;-87
2022/06/15 04:30:22;;;;;;;;;7.50;5.00;;;;;-146.67;30.71;73928.97;5080451;28;61978;-87
2022/06/15 04:32:48;;;;;;;;;5.75;4.00;;;;;-146.67;30.62;73918.97;5079598;28;64855;-87
2022/06/15 04:35:14;;;;;;;;;6.00;3.00;;;;;-146.67;30.77;73922.97;5080164;28;62007;-87
2022/06/15 04:37:39;;;;;;;;;3.00;3.00;;;;;-146.67;30.60;73920.97;5079343;28;61872;-87
2022/06/15 04:40:06;;;;;;;;;3.25;3.25;;;;;-146.67;30.59;73920.97;5081571;27;61959;-87
2022/06/15 04:42:33;;;;;;;;;3.50;2.75;;;;;-146.67;30.40;73924.97;5078275;28;63961;-86
2022/06/15 04:44:58;;;;;;;;;4.00;4.00;;;;;-146.67;30.56;73918.97;5080098;28;61905;-87
2022/06/15 04:47:26;;;;;;;;;3.25;3.25;;;;;-146.67;30.41;73922.97;5080120;28;61899;-87
2022/06/15 04:49:56;;;;;;;;;4.00;2.25;;;;;-146.67;30.67;73926.97;5080480;28;62201;-87
2022/06/15 04:52:24;;;;;;;;;3.75;3.75;;;;;-146.67;30.55;73926.97;5079560;27;62866;-87
2022/06/15 04:54:49;;;;;;;;;3.00;3.00;;;;;-146.67;30.56;73926.97;5078828;28;61885;-87
2022/06/15 04:57:15;;;;;;;;;4.00;3.00;;;;;-146.67;30.88;73930.97;5079115;28;62229;-87
2022/06/15 04:59:42;;;;;;;;;4.00;3.00;;;;;-146.67;30.95;73934.94;5081256;27;61886;-87
2022/06/15 05:02:08;;;;;;;;;3.00;3.00;;;;;-146.67;30.57;73913.00;5079547;28;62294;-87
2022/06/15 05:04:34;;;;;;;;;4.75;2.50;;;;;-146.67;30.69;73920.97;5080212;28;61823;-87
2022/06/15 05:07:00;;;;;;;;;5.50;3.75;;;;;-146.67;30.45;73917.00;5078541;28;61903;-87
2022/06/15 05:09:25;;;;;;;;;4.00;3.75;;;;;-146.67;30.58;73907.00;5078107;28;62001;-84
2022/06/15 05:11:51;;;;;;;;;2.50;2.50;;;;;-146.67;30.57;73913.00;5084426;27;62505;-83
2022/06/15 05:14:17;;;;;;;;;3.50;3.50;;;;;-146.67;30.60;73891.03;5084443;27;61974;-84
2022/06/15 05:16:42;;;;;;;;;4.75;2.75;;;;;-146.67;30.40;73891.03;5083825;28;62063;-85
2022/06/15 05:19:08;;;;;;;;;3.00;3.00;;;;;-146.67;30.61;73883.06;5084407;27;62007;-87
2022/06/15 05:21:41;;;;;;;;;5.25;4.25;;;;;-146.67;30.33;73875.06;5084431;27;62569;-84
2022/06/15 05:24:07;;;;;;;;;4.00;4.00;;;;;-146.67;30.57;73865.09;5084688;27;61778;-83
2022/06/15 05:26:33;;;;;;;;;3.00;3.00;;;;;-146.67;30.18;73849.13;5084704;27;61883;-83
2022/06/15 05:28:58;;;;;;;;;3.00;3.00;;;;;-146.67;29.97;73837.16;5084539;28;62008;-82
2022/06/15 05:31:24;;;;;;;;;4.25;2.75;;;;;-146.67;30.00;73827.16;5083838;27;62477;-83
2022/06/15 05:33:53;;;;;;;;;6.00;5.25;;;;;-146.67;30.04;73801.22;5084575;28;61986;-82
2022/06/15 05:36:21;;;;;;;;;6.00;4.00;;;;;-146.67;30.20;73793.22;5084564;27;61955;-83
2022/06/15 05:38:47;;;;;;;;;2.25;2.25;;;;;-146.67;29.83;73737.34;5082887;27;61967;-84
2022/06/15 05:41:12;;;;;;;;;4.00;4.00;;;;;-146.67;29.19;73689.44;5099164;27;64939;-83
2022/06/15 05:43:43;;;;;;;;;4.00;4.00;;;;;-146.67;28.79;73625.56;5081586;28;62058;-87
2022/06/15 05:46:32;;;;;;;;;5.00;3.50;;;;;-146.67;28.45;73583.66;5083420;27;62080;-86
2022/06/15 05:49:02;;;;;;;;;3.50;3.50;;;;;-146.67;28.35;73545.72;5076635;27;61942;-87
2022/06/15 05:51:28;;;;;;;;;6.00;4.75;;;;;-146.67;28.21;73527.75;5083540;28;62081;-87
2022/06/15 05:53:54;;;;;;;;;7.00;4.00;;;;;-146.67;28.13;73509.78;5083695;27;62035;-85
2022/06/15 05:56:20;;;;;;;;;4.25;4.25;;;;;-146.67;27.81;73495.81;5084219;27;61972;-85
2022/06/15 05:58:45;;;;;;;;;4.50;3.75;;;;;-146.67;27.65;73477.84;5083911;27;61910;-85
2022/06/15 06:01:19;;;;;;;;;2.25;2.25;;;;;-146.67;27.82;73473.88;5083655;27;62476;-86
2022/06/15 06:03:44;;;;;;;;;3.75;3.75;;;;;-146.67;27.67;73475.88;5082890;28;62001;-86
2022/06/15 06:06:11;;;;;;;;;4.50;3.25;;;;;-146.67;27.50;73483.84;5084054;27;62538;-82
2022/06/15 06:08:36;;;;;;;;;4.25;4.25;;;;;-146.67;27.93;73485.84;5080020;28;61889;-84
2022/06/15 06:11:02;;;;;;;;;3.75;2.75;;;;;-146.67;27.81;73497.81;5081385;28;64762;-84
2022/06/15 06:13:29;;;;;;;;;7.00;4.75;;;;;-146.67;27.70;73497.81;5082551;28;61989;-82
2022/06/15 06:15:58;;;;;;;;;4.00;3.50;;;;;-146.67;27.84;73497.81;5082485;27;61870;-83
2022/06/15 06:18:24;;;;;;;;;6.00;3.25;;;;;-146.67;27.73;73491.84;5063447;28;62066;-84
2022/06/15 06:20:50;;;;;;;;;3.75;3.25;;;;;-146.67;27.80;73483.84;5063108;28;61857;-84
2022/06/15 06:23:16;;;;;;;;;5.50;4.50;;;;;-146.67;27.63;73463.88;5062320;28;61711;-81
2022/06/15 06:25:42;;;;;;;;;4.25;3.50;;;;;-146.67;27.50;73412.00;5061775;28;61765;-82
2022/06/15 06:28:30;;;;;;;;;5.25;5.00;;;;;-146.67;26.94;73372.06;5063568;28;61803;-80
2022/06/15 06:30:58;;;;;;;;;6.75;4.50;;;;;-146.67;27.11;73354.13;5062578;28;61851;-81
2022/06/15 06:33:29;;;;;;;;;4.50;3.50;;;;;-146.67;27.13;73370.06;5061484;28;61832;-79
2022/06/15 06:35:55;;;;;;;;;6.25;6.25;;;;;-146.67;27.05;73382.06;5062928;28;61970;-79
2022/06/15 06:38:21;;;;;;;;;5.25;4.00;;;;;-146.67;26.79;73378.06;5063000;28;61749;-80
2022/06/15 06:40:51;;;;;;;;;3.50;3.50;;;;;-146.67;27.27;73402.00;5060987;28;62137;-86
2022/06/15 06:43:17;;;;;;;;;6.00;5.00;;;;;-146.67;27.36;73415.97;5062751;28;61791;-87
2022/06/15 06:45:42;;;;;;;;;3.00;3.00;;;;;-146.67;27.28;73425.97;5062297;28;62151;-85
2022/06/15 06:48:08;;;;;;;;;7.25;4.25;;;;;-146.67;27.25;73457.91;5066273;28;62059;-83
2022/06/15 06:50:35;;;;;;;;;4.75;4.25;;;;;-146.67;27.50;73451.91;5081785;27;62752;-85
2022/06/15 06:53:02;;;;;;;;;3.75;3.75;;;;;-146.67;27.76;73491.84;5082087;27;61801;-85
2022/06/15 06:55:28;;;;;;;;;6.00;4.75;;;;;-146.67;27.57;73501.81;5081193;28;61919;-83
2022/06/15 06:57:58;;;;;;;;;4.50;3.25;;;;;-146.67;27.67;73517.78;5081019;28;61826;-83
2022/06/15 07:00:25;;;;;;;;;3.75;3.75;;;;;-146.67;27.87;73515.78;5080734;28;65176;-84
2022/06/15 07:02:51;;;;;;;;;4.25;4.25;;;;;-146.67;27.81;73517.78;5083016;27;62027;-82
2022/06/15 07:05:17;;;;;;;;;4.50;4.50;;;;;-146.67;27.70;73515.78;5082884;28;61877;-83
2022/06/15 07:07:43;;;;;;;;;4.75;3.75;;;;;-146.67;27.70;73505.81;5082422;27;61806;-83
2022/06/15 07:10:09;;;;;;;;;6.75;4.25;;;;;-146.67;27.39;73495.81;5082308;28;61915;-87
2022/06/15 07:12:36;;;;;;;;;8.50;4.50;;;;;-146.67;27.39;73493.81;5082438;27;61978;-84
2022/06/15 07:15:05;;;;;;;;;9.00;5.75;;;;;-146.67;27.50;73499.81;5081527;28;61951;-84
2022/06/15 07:17:31;;;;;;;;;5.25;3.00;;;;;-146.67;27.59;73501.81;5098672;27;61974;-86
2022/06/15 07:19:56;;;;;;;;;8.00;6.00;;;;;-146.67;27.75;73509.78;5081661;28;62567;-84
2022/06/15 07:22:24;;;;;;;;;6.00;6.00;;;;;-146.67;27.23;73463.88;5098492;27;61768;-84
2022/06/15 07:24:50;;;;;;;;;5.25;5.25;;;;;-146.67;27.33;73443.94;5082393;28;61846;-78
2022/06/15 07:27:16;;;;;;;;;8.50;5.75;;;;;-146.67;27.39;73473.88;5082924;27;61918;-81
2022/06/15 07:29:43;;;;;;;;;6.50;4.75;;;;;-146.67;27.36;73477.84;5079960;28;64708;-79
2022/06/15 07:32:09;;;;;;;;;4.75;3.00;;;;;-146.67;27.56;73467.88;5080855;28;61980;-82
2022/06/15 07:34:35;;;;;;;;;3.50;3.50;;;;;-146.67;27.16;73451.91;5080999;28;62271;-84
2022/06/15 07:37:04;;;;;;;;;3.75;3.00;;;;;-146.67;26.94;73439.94;5082001;27;61995;-84
2022/06/15 07:39:29;;;;;;;;;4.00;4.00;;;;;-146.67;27.15;73427.97;5087940;27;63598;-83
2022/06/15 07:41:56;;;;;;;;;6.75;6.00;;;;;-146.67;27.05;73423.97;5081521;28;61876;-84
2022/06/15 07:44:24;;;;;;;;;5.00;4.75;;;;;-146.67;27.13;73406.00;5096060;27;61824;-84
2022/06/15 07:49:54;;;;;;;;;7.00;5.50;;;;;-146.67;26.79;73396.03;5081954;27;62036;-84
2022/06/15 07:49:54;;;;;;;;;5.50;5.00;;;;;-146.67;26.87;73396.03;5078609;28;62529;-84
2022/06/15 07:52:30;;;;;;;;;3.75;3.75;;;;;-146.67;26.95;73376.06;5079324;28;61947;-84
2022/06/15 07:54:56;;;;;;;;;6.50;5.00;;;;;-146.67;26.73;73364.09;5080038;28;61802;-82
2022/06/15 07:57:22;;;;;;;;;3.50;2.75;;;;;-146.67;26.82;73356.09;5081962;28;62068;-80
2022/06/15 07:59:48;;;;;;;;;8.00;5.50;;;;;-146.67;26.57;73344.13;5081027;28;61905;-80
2022/06/15 08:02:14;;;;;;;;;3.25;3.25;;;;;-146.67;26.60;73322.19;5082625;27;61860;-80
2022/06/15 08:04:43;;;;;;;;;5.50;3.50;;;;;-146.67;26.48;73308.22;5081950;27;61901;-79
2022/06/15 08:07:12;;;;;;;;;4.25;3.00;;;;;-146.67;26.28;73286.25;5082035;27;61858;-78
2022/06/15 08:09:38;;;;;;;;;2.75;2.75;;;;;-146.67;25.88;73276.28;5081111;28;61917;-79
2022/06/15 08:12:19;;;;;;;;;4.25;2.50;;;;;-146.67;25.97;73262.31;5081851;28;62122;-78
2022/06/15 08:14:47;;;;;;;;;3.25;3.00;;;;;-146.67;25.80;73250.31;5081528;27;62215;-80
2022/06/15 08:17:18;;;;;;;;;3.67;3.00;;;;;-146.67;25.82;73240.34;5082075;28;61991;-81
2022/06/15 08:19:49;;;;;;;;;3.00;2.00;;;;;-146.67;25.79;73238.34;5080977;27;63198;-80
2022/06/15 08:22:14;;;;;;;;;4.75;3.25;;;;;-146.67;25.82;73244.34;5082128;28;61828;-82
2022/06/15 08:24:41;;;;;;;;;4.00;2.75;;;;;-146.67;25.64;73232.38;5081830;28;61818;-81
2022/06/15 08:27:10;;;;;;;;;4.50;4.00;;;;;-146.67;25.44;73218.41;5082045;27;61873;-81
2022/06/15 08:29:38;;;;;;;;;4.00;3.00;;;;;-146.67;25.77;73208.41;5080666;28;61920;-81
2022/06/15 08:32:03;;;;;;;;;4.00;3.00;;;;;-146.67;25.22;73202.44;5081672;28;61734;-81
2022/06/15 08:34:29;;;;;;;;;3.67;3.67;;;;;-146.67;25.86;73194.44;5079600;28;61850;-81
2022/06/15 08:36:56;;;;;;;;;4.33;2.67;;;;;-146.67;25.85;73182.47;5082016;28;62201;-81
2022/06/15 08:39:23;;;;;;;;;6.00;5.00;;;;;-146.67;25.20;73174.50;5080731;28;61917;-79
2022/06/15 08:41:57;;;;;;;;;5.33;3.33;;;;;-146.67;25.49;73186.47;5081616;27;61948;-79
2022/06/15 08:44:34;;;;;;;;;2.67;2.00;;;;;-146.67;25.82;73200.44;5079862;28;61878;-79
2022/06/15 08:47:06;;;;;;;;;5.00;3.00;;;;;-146.67;25.85;73224.38;5100740;27;62135;-79
2022/06/15 08:50:01;;;;;;;;;4.00;3.00;;;;;-146.67;25.63;73212.41;5100317;27;64834;-79
2022/06/15 08:52:34;;;;;;;;;6.00;3.00;;;;;-146.67;25.54;73224.38;5082312;28;61684;-79
2022/06/15 08:55:13;;;;;;;;;4.67;3.67;;;;;-146.67;25.90;73236.34;5083292;28;61909;-79
2022/06/15 08:57:50;;;;;;;;;6.75;4.25;;;;;-146.67;25.71;73230.38;5084987;27;61827;-82
2022/06/15 09:00:24;;;;;;;;;5.00;3.33;;;;;-146.67;25.47;73226.38;5083823;27;62766;-81
2022/06/15 09:03:17;;;;;;;;;4.33;4.33;;;;;-146.67;25.62;73244.34;5084771;27;61781;-79
2022/06/15 09:05:55;;;;;;;;;3.33;3.33;;;;;-146.67;25.88;73226.38;5084813;27;61837;-79
2022/06/15 09:09:02;;;;;;;;;5.67;5.00;;;;;-146.67;25.45;73206.41;5084366;27;61751;-80
2022/06/15 09:12:49;;;;;;;;;5.33;4.00;;;;;-146.67;25.46;73226.38;5061338;28;61910;-79
2022/06/15 09:14:57;;;;;;;;;3.00;3.00;;;;;-146.67;25.51;73234.38;5060444;28;61863;-79
2022/06/15 09:17:26;;;;;;;;;4.00;3.00;;;;;-146.67;25.63;73240.34;5044760;28;61984;-78
2022/06/15 09:20:08;;;;;;;;;6.00;4.67;;;;;-146.67;25.56;73242.34;5045025;28;62196;-79
2022/06/15 09:22:47;;;;;;;;;5.00;2.67;;;;;-146.67;25.20;73222.38;5060842;28;63811;-78
2022/06/15 09:25:19;;;;;;;;;5.50;3.00;;;;;-146.67;25.30;73214.41;5061345;28;61807;-79
2022/06/15 09:27:56;;;;;;;;;4.33;4.00;;;;;-146.67;25.60;73224.38;5044196;28;61832;-78
2022/06/15 09:30:31;;;;;;;;;3.00;2.00;;;;;-146.67;25.70;73214.41;5060646;28;62021;-79
2022/06/15 09:33:09;;;;;;;;;3.00;3.00;;;;;-146.67;25.79;73230.38;5061220;28;61906;-79
2022/06/15 09:35:41;;;;;;;;;3.00;3.00;;;;;-146.67;25.68;73202.44;5061498;28;62080;-79
2022/06/15 09:38:10;;;;;;;;;4.67;4.00;;;;;-146.67;25.39;73186.47;5061265;28;61943;-79
2022/06/15 09:40:59;;;;;;;;;4.00;4.00;;;;;-146.67;25.22;73178.47;5061648;28;61942;-79
2022/06/15 09:43:58;;;;;;;;;4.67;3.67;;;;;-146.67;25.00;73168.50;5060790;28;64943;-79
2022/06/15 09:46:53;;;;;;;;;5.00;3.00;;;;;-146.67;24.72;73156.53;5060731;28;61899;-80
2022/06/15 09:49:21;;;;;;;;;4.00;3.67;;;;;-146.67;24.88;73150.53;5096202;27;62274;-79
2022/06/15 09:52:15;;;;;;;;;3.00;3.00;;;;;-146.67;24.99;73170.50;5084347;27;62199;-81
2022/06/15 09:54:57;;;;;;;;;4.00;3.00;;;;;-146.67;24.88;73166.50;5083167;27;62007;-82
2022/06/15 09:57:23;;;;;;;;;4.00;4.00;;;;;-146.67;24.82;73172.50;5082964;27;61774;-82
2022/06/15 09:59:50;;;;;;;;;30.50;26.50;;;;;-146.67;25.30;73150.53;5081911;28;61798;-82
2022/06/15 10:02:44;;;;;;;;;4.67;4.67;;;;;-146.67;25.13;73138.56;5083524;27;61718;-82
2022/06/15 10:05:21;;;;;;;;;5.00;5.00;;;;;-146.67;24.74;73134.56;5080395;27;63038;-80
2022/06/15 10:07:47;;;;;;;;;8.00;6.00;;;;;-146.67;24.66;73128.59;5080574;28;62020;-80
2022/06/15 10:10:18;;;;;;;;;7.67;6.67;;;;;-146.67;25.22;73112.63;5082327;27;61819;-80
2022/06/15 10:12:59;;;;;;;;;5.00;4.00;;;;;-146.67;24.89;73128.59;5082820;27;61986;-80
2022/06/15 10:15:43;;;;;;;;;5.00;5.00;;;;;-146.67;25.17;73154.53;5080078;28;65132;-79
2022/06/15 10:18:21;;;;;;;;;6.67;4.67;;;;;-146.67;25.16;73148.53;5089404;27;61927;-81
2022/06/15 10:20:55;;;;;;;;;10.75;9.50;;;;;-146.67;25.22;73144.56;5082597;28;61937;-82
2022/06/15 10:23:29;;;;;;;;;15.75;8.25;;;;;-146.67;25.17;73138.56;5082574;27;62057;-81
2022/06/15 10:25:56;;;;;;;;;4.33;3.33;;;;;-146.67;24.97;73132.56;5080029;28;61908;-81
2022/06/15 10:28:32;;;;;;;;;9.33;7.33;;;;;-146.67;24.94;73118.59;5082165;27;62145;-82
2022/06/15 10:31:01;;;;;;;;;8.00;6.75;;;;;-146.67;24.91;73100.66;5083356;28;61945;-80
2022/06/15 10:34:19;;;;;;;;;20.00;16.25;;;;;-146.67;24.69;73102.63;5081465;28;61900;-79
2022/06/15 10:37:14;;;;;;;;;7.00;5.00;;;;;-146.67;24.43;73100.66;5020076;28;61966;-82
2022/06/15 10:39:43;;;;;;;;;11.50;9.50;;;;;-146.67;24.64;73094.66;5012156;28;61911;-82
2022/06/15 10:42:18;;;;;;;;;7.75;7.00;;;;;-146.67;25.00;73080.69;5011567;28;62176;-82
2022/06/15 10:45:03;;;;;;;;;6.00;6.00;;;;;-146.67;24.68;73068.72;5019418;28;62113;-82
2022/06/15 10:47:52;;;;;;;;;6.00;6.00;;;;;-146.67;24.54;73034.78;5000218;28;64587;-80
2022/06/15 10:50:26;;;;;;;;;5.00;5.00;;;;;-146.67;24.58;73022.81;5019571;28;61963;-82
2022/06/15 10:53:23;;;;;;;;;5.00;4.33;;;;;-146.67;24.41;73006.84;5015806;28;62043;-82
2022/06/15 11:02:06;;;;;;;;;9.00;6.33;;;;;-146.67;24.32;72962.94;5000479;28;62049;-78
2022/06/15 11:04:52;;;;;;;;;5.33;4.00;;;;;-146.67;24.18;72954.97;5000019;28;62225;-78
2022/06/15 11:07:20;;;;;;;;;4.00;4.00;;;;;-146.67;24.07;72937.00;5002003;28;62101;-77
2022/06/15 11:09:55;;;;;;;;;5.33;4.00;;;;;-146.67;24.42;72950.97;5017701;28;61923;-78
2022/06/15 11:12:23;;;;;;;;;3.00;3.00;;;;;-146.67;24.45;72939.00;5046875;28;61804;-78
2022/06/15 11:14:58;;;;;;;;;5.00;5.00;;;;;-146.67;24.32;72927.00;5081813;27;61888;-80
2022/06/15 11:20:21;;;;;;;;;5.33;5.00;;;;;-146.67;24.32;72875.13;5081592;28;61966;-78
2022/06/15 11:22:50;;;;;;;;;6.00;6.00;;;;;-146.67;24.01;72877.13;5080906;27;61908;-79
2022/06/15 11:25:20;;;;;;;;;4.33;4.33;;;;;-146.67;24.11;72857.16;5079694;28;61978;-78
2022/06/15 11:28:00;;;;;;;;;4.33;4.33;;;;;-146.67;24.14;72847.19;5079921;27;62112;-80
2022/06/15 11:30:30;;;;;;;;;6.33;5.00;;;;;-146.67;24.33;72827.22;5079368;27;62692;-79
2022/06/15 11:33:16;;;;;;;;;4.67;4.67;;;;;-146.67;24.06;72805.28;5080623;27;61992;-79
2022/06/15 11:35:51;;;;;;;;;3.00;3.00;;;;;-146.67;23.76;72781.34;5079168;28;62069;-79
2022/06/15 11:38:37;;;;;;;;;4.00;4.00;;;;;-146.67;23.83;72771.34;5079435;28;62006;-79
2022/06/15 11:41:24;;;;;;;;;7.67;5.00;;;;;-146.67;23.57;72735.44;5060963;28;61995;-81
2022/06/15 11:43:52;;;;;;;;;4.67;4.00;;;;;-146.67;23.31;72683.56;5091393;27;61987;-81
2022/06/15 11:46:44;;;;;;;;;6.00;6.00;;;;;-146.67;22.84;72579.78;5080453;28;62116;-84
2022/06/15 11:49:24;;;;;;;;;4.33;4.00;;;;;-146.67;22.56;72450.09;5082055;27;61991;-82